KCGF/CGF METAR and TAF weather

Enter ICAO airport designator
Station Type Date Time Source
KCGF METAR 2019/04/24 22:45 UTC NOAA

KCGF 242245Z 34004KT 20SM OVC150 11/01 A2996


Station Type Date Time Source
KCGF Decoded METAR 2019/04/24 22:45 UTC NOAA

Cleveland / Cuyahoga, OH, United States (KCGF) 41-34N 081-29W
Apr 24, 2019 - 06:45 PM EDT / 2019.04.24 2245 UTC
Wind: from the NNW (340 degrees) at 5 MPH (4 KT):0
Visibility: 20 mile(s):0
Sky conditions: overcast
Temperature: 51 F (11 C)
Dew Point: 33 F (1 C)
Relative Humidity: 50%
Pressure (altimeter): 29.96 in. Hg (1014 hPa)
ob: KCGF 242245Z 34004KT 20SM OVC150 11/01 A2996
cycle: 23

Station Type Date Time Source
KCGF TAF 2016/07/19 12:36 UTC NOAA

TAF KCGF 191136Z 1912/2012 VRB05KT P6SM SCT080
FM191400 33008KT P6SM SCT040
FM191900 35008KT P6SM SCT060
FM200000 04003KT P6SM SCT080
FM200700 14003KT P6SM SKC

Example: see airport list